sensor_id;sensor_type;location;lat;lon;timestamp;temperature;humidity
44117;DHT22;29781;49.480;8.512;2022-08-30T00:01:05;22.40;83.30
44117;DHT22;29781;49.480;8.512;2022-08-30T00:03:38;22.40;83.20
44117;DHT22;29781;49.480;8.512;2022-08-30T00:06:06;22.30;82.70
44117;DHT22;29781;49.480;8.512;2022-08-30T00:08:33;22.30;83.00
44117;DHT22;29781;49.480;8.512;2022-08-30T00:10:59;22.30;82.50
44117;DHT22;29781;49.480;8.512;2022-08-30T00:13:26;22.40;82.80
44117;DHT22;29781;49.480;8.512;2022-08-30T00:15:52;22.30;82.80
44117;DHT22;29781;49.480;8.512;2022-08-30T00:18:18;22.30;83.00
44117;DHT22;29781;49.480;8.512;2022-08-30T00:20:45;22.20;83.20
44117;DHT22;29781;49.480;8.512;2022-08-30T00:23:11;22.20;83.10
44117;DHT22;29781;49.480;8.512;2022-08-30T00:25:38;22.20;83.50
44117;DHT22;29781;49.480;8.512;2022-08-30T00:28:04;22.20;83.80
44117;DHT22;29781;49.480;8.512;2022-08-30T00:30:29;22.20;83.30
44117;DHT22;29781;49.480;8.512;2022-08-30T00:32:55;22.20;83.40
44117;DHT22;29781;49.480;8.512;2022-08-30T00:35:21;22.30;83.60
44117;DHT22;29781;49.480;8.512;2022-08-30T00:37:47;22.30;83.80
44117;DHT22;29781;49.480;8.512;2022-08-30T00:40:13;22.40;84.20
44117;DHT22;29781;49.480;8.512;2022-08-30T00:42:44;22.40;84.10
44117;DHT22;29781;49.480;8.512;2022-08-30T00:45:19;22.40;84.00
44117;DHT22;29781;49.480;8.512;2022-08-30T00:47:45;22.20;83.40
44117;DHT22;29781;49.480;8.512;2022-08-30T00:50:12;22.10;83.40
44117;DHT22;29781;49.480;8.512;2022-08-30T00:52:40;21.90;83.80
44117;DHT22;29781;49.480;8.512;2022-08-30T00:55:06;21.70;84.70
44117;DHT22;29781;49.480;8.512;2022-08-30T00:57:33;21.40;85.10
44117;DHT22;29781;49.480;8.512;2022-08-30T01:00:00;21.50;85.40
44117;DHT22;29781;49.480;8.512;2022-08-30T01:02:27;21.60;84.60
44117;DHT22;29781;49.480;8.512;2022-08-30T01:04:55;21.60;84.70
44117;DHT22;29781;49.480;8.512;2022-08-30T01:07:22;21.60;84.70
44117;DHT22;29781;49.480;8.512;2022-08-30T01:09:47;21.70;84.90
44117;DHT22;29781;49.480;8.512;2022-08-30T01:12:13;21.80;84.50
44117;DHT22;29781;49.480;8.512;2022-08-30T01:14:39;21.60;85.80
44117;DHT22;29781;49.480;8.512;2022-08-30T01:17:05;21.50;86.30
44117;DHT22;29781;49.480;8.512;2022-08-30T01:19:37;21.30;85.70
44117;DHT22;29781;49.480;8.512;2022-08-30T01:24:50;20.80;87.80
44117;DHT22;29781;49.480;8.512;2022-08-30T01:27:19;20.90;87.40
44117;DHT22;29781;49.480;8.512;2022-08-30T01:29:45;20.90;87.30
44117;DHT22;29781;49.480;8.512;2022-08-30T01:32:21;20.90;87.80
44117;DHT22;29781;49.480;8.512;2022-08-30T01:34:47;21.10;87.50
44117;DHT22;29781;49.480;8.512;2022-08-30T01:37:15;21.20;87.40
44117;DHT22;29781;49.480;8.512;2022-08-30T01:39:44;21.40;87.30
44117;DHT22;29781;49.480;8.512;2022-08-30T01:42:11;21.50;87.20
44117;DHT22;29781;49.480;8.512;2022-08-30T01:44:37;21.50;87.00
44117;DHT22;29781;49.480;8.512;2022-08-30T01:47:03;21.60;86.90
44117;DHT22;29781;49.480;8.512;2022-08-30T01:49:30;21.40;87.30
44117;DHT22;29781;49.480;8.512;2022-08-30T01:51:56;21.30;87.60
44117;DHT22;29781;49.480;8.512;2022-08-30T01:54:22;21.10;88.00
44117;DHT22;29781;49.480;8.512;2022-08-30T01:56:48;21.00;88.50
44117;DHT22;29781;49.480;8.512;2022-08-30T01:59:13;21.00;88.70
44117;DHT22;29781;49.480;8.512;2022-08-30T02:01:39;21.10;88.30
44117;DHT22;29781;49.480;8.512;2022-08-30T02:04:06;21.20;88.20
44117;DHT22;29781;49.480;8.512;2022-08-30T02:06:33;21.30;88.60
44117;DHT22;29781;49.480;8.512;2022-08-30T02:08:59;21.20;88.70
44117;DHT22;29781;49.480;8.512;2022-08-30T02:11:24;21.10;89.00
44117;DHT22;29781;49.480;8.512;2022-08-30T02:13:51;21.10;88.60
44117;DHT22;29781;49.480;8.512;2022-08-30T02:16:19;21.10;88.60
44117;DHT22;29781;49.480;8.512;2022-08-30T02:18:47;21.00;89.00
44117;DHT22;29781;49.480;8.512;2022-08-30T02:21:14;20.90;89.60
44117;DHT22;29781;49.480;8.512;2022-08-30T02:23:40;20.60;90.10
44117;DHT22;29781;49.480;8.512;2022-08-30T02:26:07;20.50;90.30
44117;DHT22;29781;49.480;8.512;2022-08-30T02:28:33;20.30;90.50
44117;DHT22;29781;49.480;8.512;2022-08-30T02:30:59;20.50;90.40
44117;DHT22;29781;49.480;8.512;2022-08-30T02:33:25;20.50;90.30
44117;DHT22;29781;49.480;8.512;2022-08-30T02:35:51;20.40;90.40
44117;DHT22;29781;49.480;8.512;2022-08-30T02:38:16;20.40;90.30
44117;DHT22;29781;49.480;8.512;2022-08-30T02:40:42;20.40;90.40
44117;DHT22;29781;49.480;8.512;2022-08-30T02:43:09;20.40;90.30
44117;DHT22;29781;49.480;8.512;2022-08-30T02:45:35;20.40;90.50
44117;DHT22;29781;49.480;8.512;2022-08-30T02:48:01;20.30;90.70
44117;DHT22;29781;49.480;8.512;2022-08-30T02:50:27;20.20;90.70
44117;DHT22;29781;49.480;8.512;2022-08-30T02:52:53;19.90;91.00
44117;DHT22;29781;49.480;8.512;2022-08-30T02:55:19;19.70;91.60
44117;DHT22;29781;49.480;8.512;2022-08-30T02:57:45;19.60;91.60
44117;DHT22;29781;49.480;8.512;2022-08-30T03:00:14;19.50;91.90
44117;DHT22;29781;49.480;8.512;2022-08-30T03:02:41;19.40;92.10
44117;DHT22;29781;49.480;8.512;2022-08-30T03:05:08;19.50;91.80
44117;DHT22;29781;49.480;8.512;2022-08-30T03:07:34;19.60;91.60
44117;DHT22;29781;49.480;8.512;2022-08-30T03:09:59;19.60;91.70
44117;DHT22;29781;49.480;8.512;2022-08-30T03:12:25;19.60;91.80
44117;DHT22;29781;49.480;8.512;2022-08-30T03:14:51;19.50;91.90
44117;DHT22;29781;49.480;8.512;2022-08-30T03:17:16;19.40;92.00
44117;DHT22;29781;49.480;8.512;2022-08-30T03:19:43;19.50;92.00
44117;DHT22;29781;49.480;8.512;2022-08-30T03:22:09;19.60;91.90
44117;DHT22;29781;49.480;8.512;2022-08-30T03:24:35;19.70;91.80
44117;DHT22;29781;49.480;8.512;2022-08-30T03:27:02;19.80;91.60
44117;DHT22;29781;49.480;8.512;2022-08-30T03:29:27;20.00;91.50
44117;DHT22;29781;49.480;8.512;2022-08-30T03:31:55;20.00;91.50
44117;DHT22;29781;49.480;8.512;2022-08-30T03:34:22;19.80;92.00
44117;DHT22;29781;49.480;8.512;2022-08-30T03:36:49;19.80;91.90
44117;DHT22;29781;49.480;8.512;2022-08-30T03:39:14;19.90;92.00
44117;DHT22;29781;49.480;8.512;2022-08-30T03:41:40;19.90;91.70
44117;DHT22;29781;49.480;8.512;2022-08-30T03:44:06;20.00;91.60
44117;DHT22;29781;49.480;8.512;2022-08-30T03:46:31;20.00;91.60
44117;DHT22;29781;49.480;8.512;2022-08-30T03:48:57;19.90;91.50
44117;DHT22;29781;49.480;8.512;2022-08-30T03:51:24;19.60;92.00
44117;DHT22;29781;49.480;8.512;2022-08-30T03:53:49;19.60;92.10
44117;DHT22;29781;49.480;8.512;2022-08-30T03:56:16;19.50;92.20
44117;DHT22;29781;49.480;8.512;2022-08-30T03:58:42;19.60;92.30
44117;DHT22;29781;49.480;8.512;2022-08-30T04:01:08;19.30;92.40
44117;DHT22;29781;49.480;8.512;2022-08-30T04:03:34;19.20;92.70
44117;DHT22;29781;49.480;8.512;2022-08-30T04:06:00;19.20;92.90
44117;DHT22;29781;49.480;8.512;2022-08-30T04:08:26;19.20;93.00
44117;DHT22;29781;49.480;8.512;2022-08-30T04:10:52;19.10;92.90
44117;DHT22;29781;49.480;8.512;2022-08-30T04:13:19;19.10;93.00
44117;DHT22;29781;49.480;8.512;2022-08-30T04:15:45;19.00;93.10
44117;DHT22;29781;49.480;8.512;2022-08-30T04:18:11;19.00;93.20
44117;DHT22;29781;49.480;8.512;2022-08-30T04:20:37;18.80;93.60
44117;DHT22;29781;49.480;8.512;2022-08-30T04:23:04;18.70;93.70
44117;DHT22;29781;49.480;8.512;2022-08-30T04:25:32;18.80;93.70
44117;DHT22;29781;49.480;8.512;2022-08-30T04:27:58;18.70;93.80
44117;DHT22;29781;49.480;8.512;2022-08-30T04:30:24;18.70;93.90
44117;DHT22;29781;49.480;8.512;2022-08-30T04:32:50;18.60;94.10
44117;DHT22;29781;49.480;8.512;2022-08-30T04:35:15;18.50;94.40
44117;DHT22;29781;49.480;8.512;2022-08-30T04:37:41;18.40;94.50
44117;DHT22;29781;49.480;8.512;2022-08-30T04:40:08;18.40;94.70
44117;DHT22;29781;49.480;8.512;2022-08-30T04:42:35;18.40;94.70
44117;DHT22;29781;49.480;8.512;2022-08-30T04:45:03;18.40;94.80
44117;DHT22;29781;49.480;8.512;2022-08-30T04:47:30;18.40;94.90
44117;DHT22;29781;49.480;8.512;2022-08-30T04:49:56;18.60;94.60
44117;DHT22;29781;49.480;8.512;2022-08-30T04:52:22;18.70;94.50
44117;DHT22;29781;49.480;8.512;2022-08-30T04:54:52;18.60;94.50
44117;DHT22;29781;49.480;8.512;2022-08-30T04:57:17;18.70;94.20
44117;DHT22;29781;49.480;8.512;2022-08-30T04:59:43;18.70;94.20
44117;DHT22;29781;49.480;8.512;2022-08-30T05:02:08;18.80;94.00
44117;DHT22;29781;49.480;8.512;2022-08-30T05:04:35;19.00;93.70
44117;DHT22;29781;49.480;8.512;2022-08-30T05:07:01;19.10;93.80
44117;DHT22;29781;49.480;8.512;2022-08-30T05:09:26;19.10;93.80
44117;DHT22;29781;49.480;8.512;2022-08-30T05:11:52;19.20;93.60
44117;DHT22;29781;49.480;8.512;2022-08-30T05:14:18;19.30;93.30
44117;DHT22;29781;49.480;8.512;2022-08-30T05:16:44;19.20;93.40
44117;DHT22;29781;49.480;8.512;2022-08-30T05:19:10;19.10;93.60
44117;DHT22;29781;49.480;8.512;2022-08-30T05:21:36;19.20;93.50
44117;DHT22;29781;49.480;8.512;2022-08-30T05:24:04;19.20;93.50
44117;DHT22;29781;49.480;8.512;2022-08-30T05:26:32;19.30;93.30
44117;DHT22;29781;49.480;8.512;2022-08-30T05:28:59;19.50;93.10
44117;DHT22;29781;49.480;8.512;2022-08-30T05:31:33;19.40;93.40
44117;DHT22;29781;49.480;8.512;2022-08-30T05:33:59;19.20;93.70
44117;DHT22;29781;49.480;8.512;2022-08-30T05:36:28;19.20;93.50
44117;DHT22;29781;49.480;8.512;2022-08-30T05:38:54;19.30;93.00
44117;DHT22;29781;49.480;8.512;2022-08-30T05:41:21;19.50;93.00
44117;DHT22;29781;49.480;8.512;2022-08-30T05:43:48;19.50;93.00
44117;DHT22;29781;49.480;8.512;2022-08-30T05:46:16;19.70;92.90
44117;DHT22;29781;49.480;8.512;2022-08-30T05:48:44;19.60;93.00
44117;DHT22;29781;49.480;8.512;2022-08-30T05:51:13;19.50;93.50
44117;DHT22;29781;49.480;8.512;2022-08-30T05:53:40;19.50;93.50
44117;DHT22;29781;49.480;8.512;2022-08-30T05:56:09;19.50;93.20
44117;DHT22;29781;49.480;8.512;2022-08-30T05:58:36;19.10;93.60
44117;DHT22;29781;49.480;8.512;2022-08-30T06:01:02;18.60;94.60
44117;DHT22;29781;49.480;8.512;2022-08-30T06:03:28;18.60;94.90
44117;DHT22;29781;49.480;8.512;2022-08-30T06:05:57;18.70;94.90
44117;DHT22;29781;49.480;8.512;2022-08-30T06:08:22;18.80;94.50
44117;DHT22;29781;49.480;8.512;2022-08-30T06:10:48;18.80;94.50
44117;DHT22;29781;49.480;8.512;2022-08-30T06:13:14;18.80;94.40
44117;DHT22;29781;49.480;8.512;2022-08-30T06:15:40;18.30;95.00
44117;DHT22;29781;49.480;8.512;2022-08-30T06:18:08;18.10;95.40
44117;DHT22;29781;49.480;8.512;2022-08-30T06:20:41;18.00;95.40
44117;DHT22;29781;49.480;8.512;2022-08-30T06:23:08;17.80;95.80
44117;DHT22;29781;49.480;8.512;2022-08-30T06:25:37;17.80;96.10
44117;DHT22;29781;49.480;8.512;2022-08-30T06:28:04;17.90;96.00
44117;DHT22;29781;49.480;8.512;2022-08-30T06:30:29;18.00;95.80
44117;DHT22;29781;49.480;8.512;2022-08-30T06:32:55;18.20;95.80
44117;DHT22;29781;49.480;8.512;2022-08-30T06:35:21;18.20;95.60
44117;DHT22;29781;49.480;8.512;2022-08-30T06:37:46;18.30;96.10
44117;DHT22;29781;49.480;8.512;2022-08-30T06:40:12;18.40;95.20
44117;DHT22;29781;49.480;8.512;2022-08-30T06:42:38;18.30;95.10
44117;DHT22;29781;49.480;8.512;2022-08-30T06:45:05;18.40;95.50
44117;DHT22;29781;49.480;8.512;2022-08-30T06:47:30;18.50;95.60
44117;DHT22;29781;49.480;8.512;2022-08-30T06:49:56;18.90;95.00
44117;DHT22;29781;49.480;8.512;2022-08-30T06:52:22;18.90;94.30
44117;DHT22;29781;49.480;8.512;2022-08-30T06:54:48;18.90;94.60
44117;DHT22;29781;49.480;8.512;2022-08-30T06:57:14;19.00;94.20
44117;DHT22;29781;49.480;8.512;2022-08-30T06:59:39;19.00;94.40
44117;DHT22;29781;49.480;8.512;2022-08-30T07:02:06;19.20;94.30
44117;DHT22;29781;49.480;8.512;2022-08-30T07:04:32;19.30;94.20
44117;DHT22;29781;49.480;8.512;2022-08-30T07:06:57;19.50;93.60
44117;DHT22;29781;49.480;8.512;2022-08-30T07:09:23;19.60;93.50
44117;DHT22;29781;49.480;8.512;2022-08-30T07:11:50;19.70;93.40
44117;DHT22;29781;49.480;8.512;2022-08-30T07:14:16;19.80;93.50
44117;DHT22;29781;49.480;8.512;2022-08-30T07:16:43;19.80;92.90
44117;DHT22;29781;49.480;8.512;2022-08-30T07:19:09;19.90;93.30
44117;DHT22;29781;49.480;8.512;2022-08-30T07:21:38;20.00;93.00
44117;DHT22;29781;49.480;8.512;2022-08-30T07:24:05;20.00;93.10
44117;DHT22;29781;49.480;8.512;2022-08-30T07:26:37;20.00;92.90
44117;DHT22;29781;49.480;8.512;2022-08-30T07:29:03;20.00;92.90
44117;DHT22;29781;49.480;8.512;2022-08-30T07:31:29;20.20;93.20
44117;DHT22;29781;49.480;8.512;2022-08-30T07:33:55;20.40;93.20
44117;DHT22;29781;49.480;8.512;2022-08-30T07:36:21;20.70;92.70
44117;DHT22;29781;49.480;8.512;2022-08-30T07:38:48;20.80;92.40
44117;DHT22;29781;49.480;8.512;2022-08-30T07:41:21;21.10;92.30
44117;DHT22;29781;49.480;8.512;2022-08-30T07:43:48;21.30;91.90
44117;DHT22;29781;49.480;8.512;2022-08-30T07:46:14;21.50;91.50
44117;DHT22;29781;49.480;8.512;2022-08-30T07:48:40;21.70;91.40
44117;DHT22;29781;49.480;8.512;2022-08-30T07:51:15;21.70;91.50
44117;DHT22;29781;49.480;8.512;2022-08-30T07:53:41;21.80;91.40
44117;DHT22;29781;49.480;8.512;2022-08-30T07:56:06;22.00;91.10
44117;DHT22;29781;49.480;8.512;2022-08-30T07:58:33;22.00;90.80
44117;DHT22;29781;49.480;8.512;2022-08-30T08:00:59;22.10;90.70
44117;DHT22;29781;49.480;8.512;2022-08-30T08:03:26;22.20;90.80
44117;DHT22;29781;49.480;8.512;2022-08-30T08:05:52;22.30;90.50
44117;DHT22;29781;49.480;8.512;2022-08-30T08:08:19;22.50;90.30
44117;DHT22;29781;49.480;8.512;2022-08-30T08:10:45;22.40;90.50
44117;DHT22;29781;49.480;8.512;2022-08-30T08:13:11;22.50;90.20
44117;DHT22;29781;49.480;8.512;2022-08-30T08:15:37;22.70;90.00
44117;DHT22;29781;49.480;8.512;2022-08-30T08:18:03;22.70;90.00
44117;DHT22;29781;49.480;8.512;2022-08-30T08:20:30;22.70;90.10
44117;DHT22;29781;49.480;8.512;2022-08-30T08:22:55;22.90;89.90
44117;DHT22;29781;49.480;8.512;2022-08-30T08:25:21;22.60;89.30
44117;DHT22;29781;49.480;8.512;2022-08-30T08:27:49;22.40;89.60
44117;DHT22;29781;49.480;8.512;2022-08-30T08:30:16;22.30;90.00
44117;DHT22;29781;49.480;8.512;2022-08-30T08:32:43;22.40;89.50
44117;DHT22;29781;49.480;8.512;2022-08-30T08:35:09;22.60;89.80
44117;DHT22;29781;49.480;8.512;2022-08-30T08:37:36;22.70;89.30
44117;DHT22;29781;49.480;8.512;2022-08-30T08:40:04;22.70;89.50
44117;DHT22;29781;49.480;8.512;2022-08-30T08:45:12;22.80;90.10
44117;DHT22;29781;49.480;8.512;2022-08-30T08:47:43;22.80;89.30
44117;DHT22;29781;49.480;8.512;2022-08-30T08:50:17;22.70;90.00
44117;DHT22;29781;49.480;8.512;2022-08-30T08:56:04;22.80;89.00
44117;DHT22;29781;49.480;8.512;2022-08-30T08:58:40;22.90;90.00
44117;DHT22;29781;49.480;8.512;2022-08-30T09:01:08;23.10;89.20
44117;DHT22;29781;49.480;8.512;2022-08-30T09:03:34;23.10;89.10
44117;DHT22;29781;49.480;8.512;2022-08-30T09:06:03;23.20;89.60
44117;DHT22;29781;49.480;8.512;2022-08-30T09:08:31;23.40;89.30
44117;DHT22;29781;49.480;8.512;2022-08-30T09:11:03;23.50;89.20
44117;DHT22;29781;49.480;8.512;2022-08-30T09:13:29;23.70;89.70
44117;DHT22;29781;49.480;8.512;2022-08-30T09:15:57;23.70;88.70
44117;DHT22;29781;49.480;8.512;2022-08-30T09:18:42;24.10;90.00
44117;DHT22;29781;49.480;8.512;2022-08-30T09:21:09;24.70;86.90
44117;DHT22;29781;49.480;8.512;2022-08-30T09:23:36;25.00;85.70
44117;DHT22;29781;49.480;8.512;2022-08-30T09:26:12;24.90;85.40
44117;DHT22;29781;49.480;8.512;2022-08-30T09:28:48;24.80;85.20
44117;DHT22;29781;49.480;8.512;2022-08-30T09:31:20;24.80;85.40
44117;DHT22;29781;49.480;8.512;2022-08-30T09:34:07;24.60;85.50
44117;DHT22;29781;49.480;8.512;2022-08-30T09:36:48;24.70;86.10
44117;DHT22;29781;49.480;8.512;2022-08-30T09:39:28;24.40;86.20
44117;DHT22;29781;49.480;8.512;2022-08-30T09:42:13;24.50;86.10
44117;DHT22;29781;49.480;8.512;2022-08-30T09:44:39;24.40;85.50
44117;DHT22;29781;49.480;8.512;2022-08-30T09:47:27;24.40;85.90
44117;DHT22;29781;49.480;8.512;2022-08-30T09:50:12;24.40;85.40
44117;DHT22;29781;49.480;8.512;2022-08-30T09:52:52;24.50;85.80
44117;DHT22;29781;49.480;8.512;2022-08-30T09:58:47;24.70;84.80
44117;DHT22;29781;49.480;8.512;2022-08-30T10:01:28;24.80;84.60
44117;DHT22;29781;49.480;8.512;2022-08-30T10:06:58;25.00;85.30
44117;DHT22;29781;49.480;8.512;2022-08-30T10:09:48;25.00;84.60
44117;DHT22;29781;49.480;8.512;2022-08-30T10:15:07;25.10;83.90
44117;DHT22;29781;49.480;8.512;2022-08-30T10:17:55;25.10;84.00
44117;DHT22;29781;49.480;8.512;2022-08-30T10:23:32;25.30;84.30
44117;DHT22;29781;49.480;8.512;2022-08-30T10:26:27;25.50;83.70
44117;DHT22;29781;49.480;8.512;2022-08-30T10:29:00;25.70;84.00
44117;DHT22;29781;49.480;8.512;2022-08-30T10:34:04;25.80;82.60
44117;DHT22;29781;49.480;8.512;2022-08-30T10:36:39;25.70;83.20
44117;DHT22;29781;49.480;8.512;2022-08-30T10:39:08;25.70;82.60
44117;DHT22;29781;49.480;8.512;2022-08-30T10:41:38;25.90;82.10
44117;DHT22;29781;49.480;8.512;2022-08-30T10:44:25;26.10;82.00
44117;DHT22;29781;49.480;8.512;2022-08-30T10:49:46;26.40;81.00
44117;DHT22;29781;49.480;8.512;2022-08-30T10:52:35;26.60;81.30
44117;DHT22;29781;49.480;8.512;2022-08-30T10:57:38;26.60;80.00
44117;DHT22;29781;49.480;8.512;2022-08-30T11:00:11;26.70;80.50
44117;DHT22;29781;49.480;8.512;2022-08-30T11:06:02;26.80;80.50
44117;DHT22;29781;49.480;8.512;2022-08-30T11:09:00;26.80;80.60
44117;DHT22;29781;49.480;8.512;2022-08-30T11:14:18;26.90;80.40
44117;DHT22;29781;49.480;8.512;2022-08-30T11:16:50;26.90;80.00
44117;DHT22;29781;49.480;8.512;2022-08-30T11:19:27;26.90;79.80
44117;DHT22;29781;49.480;8.512;2022-08-30T11:22:15;26.90;79.70
44117;DHT22;29781;49.480;8.512;2022-08-30T11:27:49;27.10;78.70
44117;DHT22;29781;49.480;8.512;2022-08-30T11:35:48;27.30;78.10
44117;DHT22;29781;49.480;8.512;2022-08-30T11:41:07;27.40;77.60
44117;DHT22;29781;49.480;8.512;2022-08-30T11:48:53;27.60;76.90
44117;DHT22;29781;49.480;8.512;2022-08-30T11:54:59;27.70;77.70
44117;DHT22;29781;49.480;8.512;2022-08-30T12:00:26;27.70;76.70
44117;DHT22;29781;49.480;8.512;2022-08-30T12:02:58;28.70;75.60
44117;DHT22;29781;49.480;8.512;2022-08-30T12:10:53;30.00;73.40
44117;DHT22;29781;49.480;8.512;2022-08-30T12:18:44;30.20;72.70
44117;DHT22;29781;49.480;8.512;2022-08-30T12:26:30;29.40;73.10
44117;DHT22;29781;49.480;8.512;2022-08-30T12:32:01;28.90;74.30
44117;DHT22;29781;49.480;8.512;2022-08-30T12:37:04;28.60;74.00
44117;DHT22;29781;49.480;8.512;2022-08-30T12:39:39;28.40;75.10
44117;DHT22;29781;49.480;8.512;2022-08-30T12:42:26;28.30;74.80
44117;DHT22;29781;49.480;8.512;2022-08-30T12:44:54;28.30;74.90
44117;DHT22;29781;49.480;8.512;2022-08-30T12:49:51;28.30;76.30
44117;DHT22;29781;49.480;8.512;2022-08-30T12:52:34;28.20;75.60
44117;DHT22;29781;49.480;8.512;2022-08-30T12:55:12;28.30;76.20
44117;DHT22;29781;49.480;8.512;2022-08-30T12:57:55;28.40;75.60
44117;DHT22;29781;49.480;8.512;2022-08-30T13:02:54;28.50;74.80
44117;DHT22;29781;49.480;8.512;2022-08-30T13:08:17;28.50;75.20
44117;DHT22;29781;49.480;8.512;2022-08-30T13:10:59;28.50;74.90
44117;DHT22;29781;49.480;8.512;2022-08-30T13:18:37;28.80;75.10
44117;DHT22;29781;49.480;8.512;2022-08-30T13:24:03;28.80;74.60
44117;DHT22;29781;49.480;8.512;2022-08-30T13:26:36;28.90;74.00
44117;DHT22;29781;49.480;8.512;2022-08-30T13:29:06;28.90;74.40
44117;DHT22;29781;49.480;8.512;2022-08-30T13:31:39;28.90;74.80
44117;DHT22;29781;49.480;8.512;2022-08-30T13:34:05;28.90;74.90
44117;DHT22;29781;49.480;8.512;2022-08-30T13:36:34;28.90;75.00
44117;DHT22;29781;49.480;8.512;2022-08-30T13:39:02;28.90;74.40
44117;DHT22;29781;49.480;8.512;2022-08-30T13:41:28;28.80;73.70
44117;DHT22;29781;49.480;8.512;2022-08-30T13:43:54;29.00;74.30
44117;DHT22;29781;49.480;8.512;2022-08-30T13:46:20;29.00;73.90
44117;DHT22;29781;49.480;8.512;2022-08-30T13:48:50;29.10;74.90
44117;DHT22;29781;49.480;8.512;2022-08-30T13:51:17;29.20;73.60
44117;DHT22;29781;49.480;8.512;2022-08-30T13:53:42;29.10;73.00
44117;DHT22;29781;49.480;8.512;2022-08-30T13:56:08;29.00;73.80
44117;DHT22;29781;49.480;8.512;2022-08-30T13:58:34;29.10;73.90
44117;DHT22;29781;49.480;8.512;2022-08-30T14:01:00;29.10;73.40
44117;DHT22;29781;49.480;8.512;2022-08-30T14:03:25;29.10;73.50
44117;DHT22;29781;49.480;8.512;2022-08-30T14:05:52;29.10;74.20
44117;DHT22;29781;49.480;8.512;2022-08-30T14:08:23;29.20;74.50
44117;DHT22;29781;49.480;8.512;2022-08-30T14:10:49;29.30;73.20
44117;DHT22;29781;49.480;8.512;2022-08-30T14:13:14;29.30;72.70
44117;DHT22;29781;49.480;8.512;2022-08-30T14:15:40;29.30;73.20
44117;DHT22;29781;49.480;8.512;2022-08-30T14:18:06;29.40;73.40
44117;DHT22;29781;49.480;8.512;2022-08-30T14:20:34;29.40;73.40
44117;DHT22;29781;49.480;8.512;2022-08-30T14:23:01;29.40;72.50
44117;DHT22;29781;49.480;8.512;2022-08-30T14:25:26;29.40;72.90
44117;DHT22;29781;49.480;8.512;2022-08-30T14:27:54;29.30;72.30
44117;DHT22;29781;49.480;8.512;2022-08-30T14:30:20;29.40;72.30
44117;DHT22;29781;49.480;8.512;2022-08-30T14:32:46;29.40;72.90
44117;DHT22;29781;49.480;8.512;2022-08-30T14:35:12;29.30;72.20
44117;DHT22;29781;49.480;8.512;2022-08-30T14:37:38;29.50;71.80
44117;DHT22;29781;49.480;8.512;2022-08-30T14:40:04;29.60;72.20
44117;DHT22;29781;49.480;8.512;2022-08-30T14:42:30;29.50;71.50
44117;DHT22;29781;49.480;8.512;2022-08-30T14:44:55;29.40;71.70
44117;DHT22;29781;49.480;8.512;2022-08-30T14:47:21;29.30;71.90
44117;DHT22;29781;49.480;8.512;2022-08-30T14:49:47;29.20;71.70
44117;DHT22;29781;49.480;8.512;2022-08-30T14:52:13;29.10;72.20
44117;DHT22;29781;49.480;8.512;2022-08-30T14:54:38;29.00;72.30
44117;DHT22;29781;49.480;8.512;2022-08-30T14:57:04;29.00;72.80
44117;DHT22;29781;49.480;8.512;2022-08-30T14:59:30;29.00;72.90
44117;DHT22;29781;49.480;8.512;2022-08-30T15:01:55;29.10;72.60
44117;DHT22;29781;49.480;8.512;2022-08-30T15:04:21;29.20;72.20
44117;DHT22;29781;49.480;8.512;2022-08-30T15:06:48;29.20;71.70
44117;DHT22;29781;49.480;8.512;2022-08-30T15:09:16;29.30;72.00
44117;DHT22;29781;49.480;8.512;2022-08-30T15:11:44;29.40;72.20
44117;DHT22;29781;49.480;8.512;2022-08-30T15:14:10;29.40;71.50
44117;DHT22;29781;49.480;8.512;2022-08-30T15:16:37;29.30;71.20
44117;DHT22;29781;49.480;8.512;2022-08-30T15:19:04;29.40;71.40
44117;DHT22;29781;49.480;8.512;2022-08-30T15:21:38;29.40;71.40
44117;DHT22;29781;49.480;8.512;2022-08-30T15:24:04;29.40;71.40
44117;DHT22;29781;49.480;8.512;2022-08-30T15:26:31;29.30;71.10
44117;DHT22;29781;49.480;8.512;2022-08-30T15:28:56;29.30;71.30
44117;DHT22;29781;49.480;8.512;2022-08-30T15:31:24;29.20;71.20
44117;DHT22;29781;49.480;8.512;2022-08-30T15:33:52;29.20;71.00
44117;DHT22;29781;49.480;8.512;2022-08-30T15:36:18;29.20;71.20
44117;DHT22;29781;49.480;8.512;2022-08-30T15:38:45;29.20;70.60
44117;DHT22;29781;49.480;8.512;2022-08-30T15:41:11;29.20;70.60
44117;DHT22;29781;49.480;8.512;2022-08-30T15:43:38;29.20;70.60
44117;DHT22;29781;49.480;8.512;2022-08-30T15:48:53;29.20;71.10
44117;DHT22;29781;49.480;8.512;2022-08-30T15:51:21;29.20;70.60
44117;DHT22;29781;49.480;8.512;2022-08-30T15:53:47;29.30;70.30
44117;DHT22;29781;49.480;8.512;2022-08-30T15:56:13;29.30;70.50
44117;DHT22;29781;49.480;8.512;2022-08-30T15:58:40;29.30;70.20
44117;DHT22;29781;49.480;8.512;2022-08-30T16:01:06;29.20;70.00
44117;DHT22;29781;49.480;8.512;2022-08-30T16:03:33;29.10;70.30
44117;DHT22;29781;49.480;8.512;2022-08-30T16:05:59;29.00;70.60
44117;DHT22;29781;49.480;8.512;2022-08-30T16:08:26;29.00;70.50
44117;DHT22;29781;49.480;8.512;2022-08-30T16:10:52;29.00;70.10
44117;DHT22;29781;49.480;8.512;2022-08-30T16:13:18;29.00;70.20
44117;DHT22;29781;49.480;8.512;2022-08-30T16:15:43;28.90;70.00
44117;DHT22;29781;49.480;8.512;2022-08-30T16:18:10;28.90;70.10
44117;DHT22;29781;49.480;8.512;2022-08-30T16:20:41;29.00;70.40
44117;DHT22;29781;49.480;8.512;2022-08-30T16:23:09;29.10;69.90
44117;DHT22;29781;49.480;8.512;2022-08-30T16:25:35;29.20;69.10
44117;DHT22;29781;49.480;8.512;2022-08-30T16:28:02;29.20;68.80
44117;DHT22;29781;49.480;8.512;2022-08-30T16:30:29;29.20;68.50
44117;DHT22;29781;49.480;8.512;2022-08-30T16:32:54;29.20;68.60
44117;DHT22;29781;49.480;8.512;2022-08-30T16:35:20;29.20;68.20
44117;DHT22;29781;49.480;8.512;2022-08-30T16:37:46;29.20;68.70
44117;DHT22;29781;49.480;8.512;2022-08-30T16:40:12;29.20;68.90
44117;DHT22;29781;49.480;8.512;2022-08-30T16:42:37;29.20;68.40
44117;DHT22;29781;49.480;8.512;2022-08-30T16:45:04;29.10;68.30
44117;DHT22;29781;49.480;8.512;2022-08-30T16:47:29;29.00;68.60
44117;DHT22;29781;49.480;8.512;2022-08-30T16:49:58;28.90;68.30
44117;DHT22;29781;49.480;8.512;2022-08-30T16:52:24;28.80;68.30
44117;DHT22;29781;49.480;8.512;2022-08-30T16:54:50;28.70;68.70
44117;DHT22;29781;49.480;8.512;2022-08-30T16:57:15;28.70;68.90
44117;DHT22;29781;49.480;8.512;2022-08-30T16:59:41;28.60;68.80
44117;DHT22;29781;49.480;8.512;2022-08-30T17:02:06;28.60;68.90
44117;DHT22;29781;49.480;8.512;2022-08-30T17:04:32;28.50;68.90
44117;DHT22;29781;49.480;8.512;2022-08-30T17:06:58;28.50;69.10
44117;DHT22;29781;49.480;8.512;2022-08-30T17:09:23;28.50;69.00
44117;DHT22;29781;49.480;8.512;2022-08-30T17:11:49;28.40;69.30
44117;DHT22;29781;49.480;8.512;2022-08-30T17:14:15;28.40;68.90